This is the latest recevied weather packets stored in our database for station/object OK2ILA-14. If no packets are shown the sender has not sent any weather packets the latest 10 day(s).
| Time | Temp. | Humidity | Pressure | Rain* | Wind** | Luminosity | Snow |
|---|---|---|---|---|---|---|---|
| 1777447485 | 10.56° C | 44% | 1024.9 hPa | - | - | - | - |
| 1777446888 | 10° C | 44% | 1024.7 hPa | - | - | - | - |
| 1777446287 | 10.56° C | 44% | 1024.7 hPa | - | - | - | - |
| 1777445688 | 11.11° C | 45% | 1024.5 hPa | - | - | - | - |
| 1777445089 | 9.44° C | 46% | 1024.5 hPa | - | - | - | - |
| 1777444486 | 10° C | 46% | 1024.4 hPa | - | - | - | - |
| 1777443892 | 10° C | 47% | 1024.4 hPa | - | - | - | - |
| 1777443284 | 7.78° C | 49% | 1024.2 hPa | - | - | - | - |
| 1777442686 | 7.78° C | 49% | 1024.3 hPa | - | - | - | - |
| 1777442088 | 7.78° C | 49% | 1024.3 hPa | - | - | - | - |
| 1777441482 | 7.22° C | 50% | 1024.2 hPa | - | - | - | - |
| 1777440882 | 6.67° C | 52% | 1024.2 hPa | - | - | - | - |
| 1777440282 | 6.67° C | 54% | 1024.1 hPa | - | - | - | - |
| 1777439685 | 6.11° C | 55% | 1024.1 hPa | - | - | - | - |
| 1777439079 | 6.11° C | 57% | 1024 hPa | - | - | - | - |
| 1777438479 | 5° C | 61% | 1024.2 hPa | - | - | - | - |
| 1777437878 | 4.44° C | 64% | 1024 hPa | - | - | - | - |
| 1777437278 | 2.22° C | 68% | 1024 hPa | - | - | - | - |
| 1777436679 | 1.11° C | 71% | 1024.1 hPa | - | - | - | - |
| 1777436082 | 0° C | 74% | 1024 hPa | - | - | - | - |
| 1777435482 | -0.56° C | 75% | 1024 hPa | - | - | - | - |
| 1777434881 | -1.11° C | 76% | 1024 hPa | - | - | - | - |
| 1777434280 | -2.22° C | 77% | 1024 hPa | - | - | - | - |
| 1777433672 | -2.22° C | 77% | 1024.1 hPa | - | - | - | - |
| 1777433079 | -1.67° C | 76% | 1023.9 hPa | - | - | - | - |
* Rain since midnight (hover to see other rain measurements)
** Current wind speed in m/s (hover to see current wind gust speed)